• Join FlightAware (Why Join?)
  • Login
  • US Flag 
07:07AM EDT


 

Airport Tracker/Info


-or-


 

Live Flight TrackerFlight Track Log ✈ C-GLEM ✈ 21-Apr-2013 ✈ KFAY - KISM

Flight Track Log - Related Links

Times and Time Zones

All times are in EDT time to prevent confusion due to time zone crossing. See the C-GLEM flight status page for this flight to view local times or setup timezone preferences in your user account.

Time Position Orientation Groundspeed Altitude Reporting Facility
EDT Latitude Longitude Course Direction KTS MPH feet Rate Location/Type
04:49PM 35.0197 -78.8003 126° Southeast 205 236 4,100  Level Washington Center
04:50PM 34.9711 -78.8261 204° Southwest 212 244 5,800 1,500 Climbing Washington Center
04:51PM 34.9053 -78.8642 205° Southwest 257 296 7,100 1,440 Climbing Washington Center
04:52PM 34.8481 -78.8947 204° Southwest 237 273 8,700 1,500 Climbing Washington Center
04:53PM 34.5253 -79.1291 202° Southwest  Level FlightAware Approximate
04:53PM 34.7889 -78.9278 205° Southwest 237 273 10,100  Level Washington Center
04:55PM 34.6425 -79.0139 206° Southwest 255 293 13,600 1,380 Climbing Jacksonville Center
04:56PM 34.5789 -79.0497 205° Southwest 255 293 15,100 1,500 Climbing Jacksonville Center
04:57PM 34.5197 -79.0875 208° Southwest 255 293 16,600 1,500 Climbing Jacksonville Center
04:58PM 34.4603 -79.1278 209° Southwest 255 293 18,100 1,260 Climbing Jacksonville Center
04:59PM 34.4031 -79.1681 210° Southwest 249 287 19,200 1,260 Climbing Jacksonville Center
05:00PM 34.3503 -79.2106 214° Southwest 244 281 20,700 1,440 Climbing Jacksonville Center
05:01PM 34.2908 -79.2533 211° Southwest 244 281 22,100 1,440 Climbing Jacksonville Center
05:02PM 34.2358 -79.2933 211° Southwest 244 281 23,600 900 Climbing Jacksonville Center
05:03PM 34.1764 -79.3308 208° Southwest 244 281 24,000 720 Climbing Jacksonville Center
05:04PM 34.1169 -79.3708 209° Southwest 249 287 25,100 1,200 Climbing Jacksonville Center
05:05PM 34.0575 -79.4108 209° Southwest 255 293 26,400 1,380 Climbing Jacksonville Center
05:06PM 33.9981 -79.4483 208° Southwest 235 270 27,900 780 Climbing Jacksonville Center
05:07PM 33.9428 -79.4856 209° Southwest 228 262 28,000  Climbing Jacksonville Center
05:08PM 33.8792 -79.5256 208° Southwest 242 278 28,000  Level Jacksonville Center
05:09PM 33.8094 -79.5683 207° Southwest 261 300 28,000  Level Jacksonville Center
05:10PM 33.7436 -79.6108 208° Southwest 267 307 28,000  Level Jacksonville Center
05:11PM 33.6739 -79.6608 211° Southwest 280 322 28,000  Level Jacksonville Center
05:12PM 33.6042 -79.7056 208° Southwest 280 322 28,000  Level Jacksonville Center
05:13PM 33.5344 -79.7506 208° Southwest 285 328 28,000  Level Jacksonville Center
05:14PM 33.4667 -79.7978 210° Southwest 285 328 28,000  Level Jacksonville Center
05:15PM 33.3967 -79.8425 208° Southwest 285 328 28,000  Level Jacksonville Center
05:16PM 33.3269 -79.8872 208° Southwest 285 328 28,000  Level Jacksonville Center
05:17PM 33.2569 -79.9342 209° Southwest 285 328 28,000  Level Jacksonville Center
05:18PM 33.2017 -79.9708 209° Southwest 285 328 28,000  Level Jacksonville Center
05:19PM 33.1172 -80.0231 207° Southwest 285 328 28,000  Level Jacksonville Center
05:20PM 33.0472 -80.0675 208° Southwest 285 328 28,000  Level Jacksonville Center
05:21PM 32.9794 -80.1192 213° Southwest 290 334 28,000  Level Jacksonville Center
05:22PM 32.9175 -80.1533 205° Southwest 285 328 28,000  Level Jacksonville Center
05:23PM 32.8414 -80.2025 208° Southwest 290 334 28,000  Level Jacksonville Center
05:24PM 32.7736 -80.2467 209° Southwest 290 334 28,000  Level Jacksonville Center
05:25PM 32.7056 -80.2906 208° Southwest 283 326 28,000  Level Jacksonville Center
05:26PM 32.6333 -80.3369 208° Southwest 283 326 28,000  Level Jacksonville Center
05:27PM 32.5653 -80.3783 207° Southwest 283 326 28,000  Level Jacksonville Center
05:28PM 32.4931 -80.4197 206° Southwest 283 326 28,000  Level Jacksonville Center
05:29PM 32.4208 -80.4636 207° Southwest 283 326 28,000  Level Jacksonville Center
05:30PM 32.3508 -80.5047 206° Southwest 283 326 28,000  Level Jacksonville Center
05:31PM 32.2997 -80.5750 229° Southwest 278 320 28,000  Level Jacksonville Center
05:32PM 32.2489 -80.6400 227° Southwest 278 320 28,000  Level Jacksonville Center
05:33PM 32.2000 -80.7100 230° Southwest 278 320 28,000  Level Jacksonville Center
05:34PM 32.1508 -80.7775 229° Southwest 278 320 28,000  Level Jacksonville Center
05:35PM 32.0978 -80.8522 230° Southwest 278 320 28,000  Level Jacksonville Center
05:36PM 32.0467 -80.9194 228° Southwest 278 320 28,000  Level Jacksonville Center
05:37PM 32.0017 -80.9792 228° Southwest 278 320 28,000  Level Jacksonville Center
05:38PM 31.9464 -81.0539 229° Southwest 273 314 28,000  Level Jacksonville Center
05:39PM 31.9014 -81.1133 228° Southwest 278 320 28,000  Level Jacksonville Center
05:40PM 31.8522 -81.1806 229° Southwest 278 320 28,000  Level Jacksonville Center
05:41PM 31.7969 -81.2547 229° Southwest 278 320 28,000  Level Jacksonville Center
05:42PM 31.7494 -81.3142 227° Southwest 278 320 28,000  Level Jacksonville Center
05:43PM 31.6961 -81.3886 230° Southwest 278 320 28,000  Level Jacksonville Center
05:44PM 31.6469 -81.4553 229° Southwest 278 320 28,000  Level Jacksonville Center
05:45PM 31.5850 -81.5342 227° Southwest 278 320 28,000  Level Jacksonville Center
05:46PM 31.5294 -81.6081 229° Southwest 283 326 28,000  Level Jacksonville Center
05:47PM 31.4739 -81.6794 228° Southwest 283 326 28,000  Level Jacksonville Center
05:48PM 31.4222 -81.7508 230° Southwest 283 326 28,000  Level Jacksonville Center
05:49PM 31.3747 -81.8122 228° Southwest 288 331 28,000  Level Jacksonville Center
05:50PM 31.3189 -81.8858 228° Southwest 288 331 28,000  Level Jacksonville Center
05:51PM 31.2672 -81.9519 228° Southwest 288 331 28,000 -180 Level Jacksonville Center
05:52PM 31.2133 -82.0036 219° Southwest 288 331 27,700 -780 Descending Jacksonville Center
05:53PM 31.1303 -82.0406 201° Southwest 301 346 26,500 -1,200 Descending Jacksonville Center
05:54PM 31.0428 -82.0706 196° South 319 367 25,400 -1,200 Descending Jacksonville Center
05:55PM 30.9594 -82.1028 198° South 325 374 24,200 -1,200 Descending Jacksonville Center
05:56PM 30.8719 -82.1325 196° South 325 374 23,100 -600 Descending Jacksonville Center
05:57PM 30.7886 -82.1647 198° South 325 374 23,000 -60 Descending Jacksonville Center
05:58PM 30.7008 -82.1872 192° South 325 374 23,000  Level Jacksonville Center
05:59PM 30.6111 -82.1878 180° South 320 368 23,000  Level Jacksonville Center
06:00PM 30.5214 -82.1861 179° South 320 368 23,000 -240 Level Jacksonville Center
06:01PM 30.4336 -82.1914 183° South 320 368 22,600 -720 Descending Jacksonville Center
06:02PM 30.3397 -82.1922 180° South 332 382 21,600 -960 Descending Jacksonville Center
06:03PM 30.2458 -82.1978 183° South 332 382 20,700 -900 Descending Jacksonville Center
06:04PM 30.1539 -82.2008 182° South 332 382 19,800 -900 Descending Jacksonville Center
06:05PM 30.0642 -82.2039 182° South 332 382 18,900 -900 Descending Jacksonville Center
06:06PM 29.9744 -82.2067 182° South 327 376 18,000 -840 Descending Jacksonville Center
06:07PM 29.8806 -82.2097 182° South 332 382 17,300 -840 Descending Jacksonville Center
06:08PM 29.7908 -82.2128 182° South 332 382 16,400 -600 Descending Jacksonville Center
06:09PM 29.7031 -82.2136 180° South 325 374 16,100 -300 Descending Jacksonville Center
06:10PM 29.6550 -82.2161 183° South 311 358 16,000 -720 Descending Jacksonville Center
06:10PM 29.6156 -82.2142 178° South 325 374 15,400 -1,440 Descending Jacksonville Center
06:11PM 29.5300 -82.2219 185° South 310 357 14,000 -1,920 Descending Jacksonville Center
06:12PM 29.4525 -82.2225 180° South 304 350 12,000 -2,460 Descending Jacksonville Center
06:13PM 29.3692 -82.2231 180° South 286 329 9,300 -2,100 Descending Jacksonville Center
06:14PM 29.3125 -82.1806 147° Southeast 294 338 8,000 -1,380 Descending Jacksonville Center
06:14PM 29.3000 -82.1639 131° Southeast 277 319 7,700 -1,020 Descending Jacksonville Center
06:15PM 29.2433 -82.1214 147° Southeast 283 326 7,000 -720 Descending Jacksonville Center
06:15PM 29.2328 -82.1144 150° Southeast 277 319 7,000  Level Jacksonville Center
06:16PM 29.1844 -82.0672 140° Southeast 276 318 7,000  Level Jacksonville Center
06:16PM 29.1739 -82.0556 136° Southeast 277 319 7,000  Level Jacksonville Center
06:17PM 29.1217 -82.0156 146° Southeast 282 325 7,000  Level Jacksonville Center
06:17PM 29.1111 -82.0036 135° Southeast 282 325 7,000  Level Jacksonville Center
06:18PM 29.0586 -81.9567 142° Southeast 285 328 7,000  Level Jacksonville Center
06:19PM 28.9872 -81.8933 142° Southeast 282 325 7,000  Level Jacksonville Center
06:20PM 28.9178 -81.8322 142° Southeast 287 330 7,000  Level Jacksonville Center
06:21PM 28.8547 -81.7761 142° Southeast 287 330 7,000 -120 Level Jacksonville Center
06:22PM 28.8167 -81.7500 149° Southeast 289 333 6,900 -720 Descending Orlando TRACON
06:23PM 28.7500 -81.7333 168° South 274 315 6,000 -540 Descending Orlando TRACON
06:24PM 28.6667 -81.7333 180° South 276 318 5,900 -480 Descending Orlando TRACON
06:25PM 28.5833 -81.7167 170° South 275 316 5,100 -1,020 Descending Orlando TRACON
06:26PM 28.5167 -81.7333 192° South 251 289 3,900 -1,140 Descending Orlando TRACON
06:27PM 28.4667 -81.6833 139° Southeast 244 281 2,900 -540 Descending Orlando TRACON
06:28PM 28.4333 -81.6333 127° Southeast 236 272 2,900 -480 Level Orlando TRACON
06:29PM 28.3833 -81.5667 130° Southeast 262 302 1,900 -480 Descending Orlando TRACON
06:30PM 28.3167 -81.5333 156° South 234 269 1,900 -180 Level Orlando TRACON
06:31PM 28.2833 -81.4833 127° Southeast 221 254 1,600 -480 Descending Orlando TRACON
06:32PM 28.2500 -81.4333 127° Southeast 150 173 1,000 -600 Descending Orlando TRACON
06:35PM 28.2833 -81.4333 204° Southwest  Level FlightAware Approximate
06:42PM 28.2898 -81.4371 204° Southwest  Level Estimated
06:43PM 28.2898 -81.4371 204° Southwest  Level Estimated
06:44PM 28.2898 -81.4371 204° Southwest  Level Estimated